sensor_id;sensor_type;location;lat;lon;timestamp;P1;durP1;ratioP1;P2;durP2;ratioP2
68449;SDS011;67758;39.572;2.652;2023-06-14T00:01:47;11.35;;;2.88;;
68449;SDS011;67758;39.572;2.652;2023-06-14T00:04:15;10.30;;;2.67;;
68449;SDS011;67758;39.572;2.652;2023-06-14T00:06:47;10.50;;;2.90;;
68449;SDS011;67758;39.572;2.652;2023-06-14T00:09:13;13.07;;;2.50;;
68449;SDS011;67758;39.572;2.652;2023-06-14T00:11:41;9.32;;;2.40;;
68449;SDS011;67758;39.572;2.652;2023-06-14T00:14:10;9.05;;;2.55;;
68449;SDS011;67758;39.572;2.652;2023-06-14T00:16:35;10.68;;;1.92;;
68449;SDS011;67758;39.572;2.652;2023-06-14T00:19:02;7.03;;;2.10;;
68449;SDS011;67758;39.572;2.652;2023-06-14T00:21:30;10.95;;;2.20;;
68449;SDS011;67758;39.572;2.652;2023-06-14T00:23:57;6.72;;;1.88;;
68449;SDS011;67758;39.572;2.652;2023-06-14T00:26:24;10.18;;;2.55;;
68449;SDS011;67758;39.572;2.652;2023-06-14T00:28:52;8.77;;;2.10;;
68449;SDS011;67758;39.572;2.652;2023-06-14T00:31:19;9.02;;;2.85;;
68449;SDS011;67758;39.572;2.652;2023-06-14T00:33:47;9.05;;;2.10;;
68449;SDS011;67758;39.572;2.652;2023-06-14T00:36:14;6.75;;;2.10;;
68449;SDS011;67758;39.572;2.652;2023-06-14T00:38:40;10.43;;;1.80;;
68449;SDS011;67758;39.572;2.652;2023-06-14T00:41:06;8.48;;;2.53;;
68449;SDS011;67758;39.572;2.652;2023-06-14T00:43:32;9.67;;;2.07;;
68449;SDS011;67758;39.572;2.652;2023-06-14T00:46:01;8.45;;;2.30;;
68449;SDS011;67758;39.572;2.652;2023-06-14T00:48:27;10.02;;;2.03;;
68449;SDS011;67758;39.572;2.652;2023-06-14T00:50:54;9.73;;;2.20;;
68449;SDS011;67758;39.572;2.652;2023-06-14T00:53:20;7.90;;;1.90;;
68449;SDS011;67758;39.572;2.652;2023-06-14T00:55:48;8.07;;;2.40;;
68449;SDS011;67758;39.572;2.652;2023-06-14T00:58:14;6.78;;;2.10;;
68449;SDS011;67758;39.572;2.652;2023-06-14T01:00:40;8.00;;;2.03;;
68449;SDS011;67758;39.572;2.652;2023-06-14T01:03:06;9.50;;;2.27;;
68449;SDS011;67758;39.572;2.652;2023-06-14T01:05:32;9.43;;;2.22;;
68449;SDS011;67758;39.572;2.652;2023-06-14T01:10:56;7.30;;;2.10;;
68449;SDS011;67758;39.572;2.652;2023-06-14T01:13:32;10.63;;;2.08;;
68449;SDS011;67758;39.572;2.652;2023-06-14T01:16:04;7.95;;;1.88;;
68449;SDS011;67758;39.572;2.652;2023-06-14T01:18:40;6.43;;;1.95;;
68449;SDS011;67758;39.572;2.652;2023-06-14T01:21:19;8.50;;;2.23;;
68449;SDS011;67758;39.572;2.652;2023-06-14T01:23:50;6.55;;;2.00;;
68449;SDS011;67758;39.572;2.652;2023-06-14T01:26:18;8.80;;;2.03;;
68449;SDS011;67758;39.572;2.652;2023-06-14T01:28:45;7.05;;;1.85;;
68449;SDS011;67758;39.572;2.652;2023-06-14T01:31:19;7.55;;;1.90;;
68449;SDS011;67758;39.572;2.652;2023-06-14T01:33:47;6.90;;;2.07;;
68449;SDS011;67758;39.572;2.652;2023-06-14T01:36:16;6.55;;;1.67;;
68449;SDS011;67758;39.572;2.652;2023-06-14T01:38:44;6.70;;;1.70;;
68449;SDS011;67758;39.572;2.652;2023-06-14T01:41:13;5.50;;;1.70;;
68449;SDS011;67758;39.572;2.652;2023-06-14T01:43:41;6.93;;;1.70;;
68449;SDS011;67758;39.572;2.652;2023-06-14T01:46:08;6.00;;;2.10;;
68449;SDS011;67758;39.572;2.652;2023-06-14T01:48:35;9.75;;;1.90;;
68449;SDS011;67758;39.572;2.652;2023-06-14T01:51:01;6.07;;;1.58;;
68449;SDS011;67758;39.572;2.652;2023-06-14T01:53:30;5.80;;;1.63;;
68449;SDS011;67758;39.572;2.652;2023-06-14T01:55:58;6.25;;;2.20;;
68449;SDS011;67758;39.572;2.652;2023-06-14T01:58:25;6.57;;;1.67;;
68449;SDS011;67758;39.572;2.652;2023-06-14T02:00:53;6.72;;;2.08;;
68449;SDS011;67758;39.572;2.652;2023-06-14T02:03:21;4.90;;;1.58;;
68449;SDS011;67758;39.572;2.652;2023-06-14T02:05:47;6.70;;;1.67;;
68449;SDS011;67758;39.572;2.652;2023-06-14T02:08:12;7.70;;;2.15;;
68449;SDS011;67758;39.572;2.652;2023-06-14T02:10:39;5.93;;;1.60;;
68449;SDS011;67758;39.572;2.652;2023-06-14T02:13:05;6.90;;;1.90;;
68449;SDS011;67758;39.572;2.652;2023-06-14T02:15:33;7.68;;;1.75;;
68449;SDS011;67758;39.572;2.652;2023-06-14T02:18:00;6.63;;;1.60;;
68449;SDS011;67758;39.572;2.652;2023-06-14T02:20:28;6.35;;;1.80;;
68449;SDS011;67758;39.572;2.652;2023-06-14T02:22:54;10.38;;;2.00;;
68449;SDS011;67758;39.572;2.652;2023-06-14T02:25:21;5.20;;;1.70;;
68449;SDS011;67758;39.572;2.652;2023-06-14T02:27:47;5.55;;;1.70;;
68449;SDS011;67758;39.572;2.652;2023-06-14T02:30:13;6.83;;;1.67;;
68449;SDS011;67758;39.572;2.652;2023-06-14T02:32:38;7.25;;;1.85;;
68449;SDS011;67758;39.572;2.652;2023-06-14T02:35:05;6.70;;;1.73;;
68449;SDS011;67758;39.572;2.652;2023-06-14T02:37:32;6.07;;;1.70;;
68449;SDS011;67758;39.572;2.652;2023-06-14T02:39:58;6.88;;;1.92;;
68449;SDS011;67758;39.572;2.652;2023-06-14T02:42:24;7.10;;;1.75;;
68449;SDS011;67758;39.572;2.652;2023-06-14T02:44:50;6.17;;;1.87;;
68449;SDS011;67758;39.572;2.652;2023-06-14T02:47:17;6.50;;;1.73;;
68449;SDS011;67758;39.572;2.652;2023-06-14T02:49:44;8.05;;;2.03;;
68449;SDS011;67758;39.572;2.652;2023-06-14T02:52:14;8.00;;;1.60;;
68449;SDS011;67758;39.572;2.652;2023-06-14T02:54:41;5.80;;;1.67;;
68449;SDS011;67758;39.572;2.652;2023-06-14T02:57:08;4.70;;;1.63;;
68449;SDS011;67758;39.572;2.652;2023-06-14T02:59:35;5.20;;;1.48;;
68449;SDS011;67758;39.572;2.652;2023-06-14T03:02:02;6.93;;;1.57;;
68449;SDS011;67758;39.572;2.652;2023-06-14T03:04:31;4.97;;;1.35;;
68449;SDS011;67758;39.572;2.652;2023-06-14T03:07:03;5.93;;;1.65;;
68449;SDS011;67758;39.572;2.652;2023-06-14T03:09:37;5.80;;;1.60;;
68449;SDS011;67758;39.572;2.652;2023-06-14T03:12:05;5.80;;;1.60;;
68449;SDS011;67758;39.572;2.652;2023-06-14T03:14:34;5.33;;;1.50;;
68449;SDS011;67758;39.572;2.652;2023-06-14T03:17:00;5.60;;;1.58;;
68449;SDS011;67758;39.572;2.652;2023-06-14T03:19:29;6.35;;;1.75;;
68449;SDS011;67758;39.572;2.652;2023-06-14T03:21:55;5.68;;;1.65;;
68449;SDS011;67758;39.572;2.652;2023-06-14T03:24:24;8.80;;;1.70;;
68449;SDS011;67758;39.572;2.652;2023-06-14T03:26:52;5.73;;;1.73;;
68449;SDS011;67758;39.572;2.652;2023-06-14T03:29:19;7.50;;;1.77;;
68449;SDS011;67758;39.572;2.652;2023-06-14T03:31:58;6.15;;;1.85;;
68449;SDS011;67758;39.572;2.652;2023-06-14T03:34:25;7.47;;;1.90;;
68449;SDS011;67758;39.572;2.652;2023-06-14T03:36:52;6.85;;;2.00;;
68449;SDS011;67758;39.572;2.652;2023-06-14T03:39:18;5.13;;;1.75;;
68449;SDS011;67758;39.572;2.652;2023-06-14T03:41:45;6.15;;;1.58;;
68449;SDS011;67758;39.572;2.652;2023-06-14T03:44:11;4.97;;;1.58;;
68449;SDS011;67758;39.572;2.652;2023-06-14T03:46:36;7.07;;;2.10;;
68449;SDS011;67758;39.572;2.652;2023-06-14T03:49:02;7.88;;;2.30;;
68449;SDS011;67758;39.572;2.652;2023-06-14T03:51:29;8.00;;;1.70;;
68449;SDS011;67758;39.572;2.652;2023-06-14T03:53:54;8.03;;;2.20;;
68449;SDS011;67758;39.572;2.652;2023-06-14T03:56:21;7.20;;;1.90;;
68449;SDS011;67758;39.572;2.652;2023-06-14T03:58:47;8.40;;;2.13;;
68449;SDS011;67758;39.572;2.652;2023-06-14T04:01:13;7.13;;;2.00;;
68449;SDS011;67758;39.572;2.652;2023-06-14T04:03:42;7.45;;;2.22;;
68449;SDS011;67758;39.572;2.652;2023-06-14T04:06:08;7.85;;;2.17;;
68449;SDS011;67758;39.572;2.652;2023-06-14T04:08:35;7.35;;;2.05;;
68449;SDS011;67758;39.572;2.652;2023-06-14T04:11:02;8.07;;;2.30;;
68449;SDS011;67758;39.572;2.652;2023-06-14T04:13:28;5.22;;;2.10;;
68449;SDS011;67758;39.572;2.652;2023-06-14T04:15:54;6.10;;;2.00;;
68449;SDS011;67758;39.572;2.652;2023-06-14T04:18:24;6.55;;;2.10;;
68449;SDS011;67758;39.572;2.652;2023-06-14T04:20:50;6.05;;;1.80;;
68449;SDS011;67758;39.572;2.652;2023-06-14T04:23:17;10.40;;;1.83;;
68449;SDS011;67758;39.572;2.652;2023-06-14T04:25:43;7.10;;;2.08;;
68449;SDS011;67758;39.572;2.652;2023-06-14T04:28:12;7.53;;;2.28;;
68449;SDS011;67758;39.572;2.652;2023-06-14T04:30:42;9.80;;;2.40;;
68449;SDS011;67758;39.572;2.652;2023-06-14T04:33:12;6.32;;;2.25;;
68449;SDS011;67758;39.572;2.652;2023-06-14T04:35:38;6.50;;;2.00;;
68449;SDS011;67758;39.572;2.652;2023-06-14T04:38:12;6.60;;;2.43;;
68449;SDS011;67758;39.572;2.652;2023-06-14T04:40:41;7.63;;;2.05;;
68449;SDS011;67758;39.572;2.652;2023-06-14T04:43:09;7.35;;;2.25;;
68449;SDS011;67758;39.572;2.652;2023-06-14T04:45:37;7.28;;;2.05;;
68449;SDS011;67758;39.572;2.652;2023-06-14T04:48:06;8.35;;;2.30;;
68449;SDS011;67758;39.572;2.652;2023-06-14T04:50:32;7.53;;;1.90;;
68449;SDS011;67758;39.572;2.652;2023-06-14T04:53:00;7.43;;;1.83;;
68449;SDS011;67758;39.572;2.652;2023-06-14T04:55:28;9.82;;;2.58;;
68449;SDS011;67758;39.572;2.652;2023-06-14T04:57:53;10.00;;;2.43;;
68449;SDS011;67758;39.572;2.652;2023-06-14T05:00:19;8.43;;;2.22;;
68449;SDS011;67758;39.572;2.652;2023-06-14T05:02:46;8.25;;;2.05;;
68449;SDS011;67758;39.572;2.652;2023-06-14T05:05:12;7.80;;;2.10;;
68449;SDS011;67758;39.572;2.652;2023-06-14T05:07:38;6.70;;;2.20;;
68449;SDS011;67758;39.572;2.652;2023-06-14T05:10:11;5.55;;;1.80;;
68449;SDS011;67758;39.572;2.652;2023-06-14T05:13:01;6.15;;;1.50;;
68449;SDS011;67758;39.572;2.652;2023-06-14T05:15:26;6.35;;;1.92;;
68449;SDS011;67758;39.572;2.652;2023-06-14T05:17:54;5.90;;;1.98;;
68449;SDS011;67758;39.572;2.652;2023-06-14T05:20:21;5.57;;;1.80;;
68449;SDS011;67758;39.572;2.652;2023-06-14T05:22:53;6.85;;;1.88;;
68449;SDS011;67758;39.572;2.652;2023-06-14T05:25:19;6.25;;;2.10;;
68449;SDS011;67758;39.572;2.652;2023-06-14T05:27:46;6.85;;;1.80;;
68449;SDS011;67758;39.572;2.652;2023-06-14T05:30:13;5.38;;;1.63;;
68449;SDS011;67758;39.572;2.652;2023-06-14T05:32:40;6.38;;;1.77;;
68449;SDS011;67758;39.572;2.652;2023-06-14T05:35:06;7.68;;;2.13;;
68449;SDS011;67758;39.572;2.652;2023-06-14T05:37:34;5.25;;;1.88;;
68449;SDS011;67758;39.572;2.652;2023-06-14T05:40:00;6.57;;;2.00;;
68449;SDS011;67758;39.572;2.652;2023-06-14T05:42:29;6.80;;;1.90;;
68449;SDS011;67758;39.572;2.652;2023-06-14T05:44:55;8.88;;;1.70;;
68449;SDS011;67758;39.572;2.652;2023-06-14T05:47:22;8.27;;;1.90;;
68449;SDS011;67758;39.572;2.652;2023-06-14T05:49:48;5.63;;;1.60;;
68449;SDS011;67758;39.572;2.652;2023-06-14T05:52:13;6.32;;;2.25;;
68449;SDS011;67758;39.572;2.652;2023-06-14T05:54:39;6.17;;;1.70;;
68449;SDS011;67758;39.572;2.652;2023-06-14T05:57:07;6.50;;;1.83;;
68449;SDS011;67758;39.572;2.652;2023-06-14T05:59:36;5.93;;;1.80;;
68449;SDS011;67758;39.572;2.652;2023-06-14T06:02:02;7.53;;;2.22;;
68449;SDS011;67758;39.572;2.652;2023-06-14T06:04:28;8.20;;;2.33;;
68449;SDS011;67758;39.572;2.652;2023-06-14T06:06:53;6.20;;;1.90;;
68449;SDS011;67758;39.572;2.652;2023-06-14T06:09:20;7.57;;;2.08;;
68449;SDS011;67758;39.572;2.652;2023-06-14T06:11:45;6.80;;;2.10;;
68449;SDS011;67758;39.572;2.652;2023-06-14T06:14:11;8.00;;;2.15;;
68449;SDS011;67758;39.572;2.652;2023-06-14T06:16:37;7.00;;;2.23;;
68449;SDS011;67758;39.572;2.652;2023-06-14T06:19:03;9.68;;;2.30;;
68449;SDS011;67758;39.572;2.652;2023-06-14T06:21:28;10.20;;;2.20;;
68449;SDS011;67758;39.572;2.652;2023-06-14T06:23:54;13.02;;;2.30;;
68449;SDS011;67758;39.572;2.652;2023-06-14T06:26:21;10.17;;;2.23;;
68449;SDS011;67758;39.572;2.652;2023-06-14T06:28:48;5.90;;;1.65;;
68449;SDS011;67758;39.572;2.652;2023-06-14T06:31:14;8.00;;;2.40;;
68449;SDS011;67758;39.572;2.652;2023-06-14T06:33:41;5.97;;;2.17;;
68449;SDS011;67758;39.572;2.652;2023-06-14T06:36:08;6.13;;;1.93;;
68449;SDS011;67758;39.572;2.652;2023-06-14T06:38:36;7.20;;;2.25;;
68449;SDS011;67758;39.572;2.652;2023-06-14T06:41:02;9.32;;;2.33;;
68449;SDS011;67758;39.572;2.652;2023-06-14T06:43:28;9.73;;;2.30;;
68449;SDS011;67758;39.572;2.652;2023-06-14T06:45:53;7.68;;;2.50;;
68449;SDS011;67758;39.572;2.652;2023-06-14T06:48:20;6.47;;;2.10;;
68449;SDS011;67758;39.572;2.652;2023-06-14T06:50:49;9.18;;;2.20;;
68449;SDS011;67758;39.572;2.652;2023-06-14T06:53:15;10.13;;;2.30;;
68449;SDS011;67758;39.572;2.652;2023-06-14T06:55:40;7.27;;;2.40;;
68449;SDS011;67758;39.572;2.652;2023-06-14T06:58:06;5.38;;;2.05;;
68449;SDS011;67758;39.572;2.652;2023-06-14T07:00:32;6.00;;;1.77;;
68449;SDS011;67758;39.572;2.652;2023-06-14T07:02:57;10.40;;;2.27;;
68449;SDS011;67758;39.572;2.652;2023-06-14T07:05:25;8.20;;;1.92;;
68449;SDS011;67758;39.572;2.652;2023-06-14T07:07:56;4.57;;;1.65;;
68449;SDS011;67758;39.572;2.652;2023-06-14T07:10:22;7.28;;;2.15;;
68449;SDS011;67758;39.572;2.652;2023-06-14T07:12:54;6.55;;;1.73;;
68449;SDS011;67758;39.572;2.652;2023-06-14T07:15:22;6.47;;;1.88;;
68449;SDS011;67758;39.572;2.652;2023-06-14T07:17:50;6.25;;;1.70;;
68449;SDS011;67758;39.572;2.652;2023-06-14T07:20:19;9.55;;;2.70;;
68449;SDS011;67758;39.572;2.652;2023-06-14T07:22:57;7.47;;;1.80;;
68449;SDS011;67758;39.572;2.652;2023-06-14T07:25:23;6.35;;;1.75;;
68449;SDS011;67758;39.572;2.652;2023-06-14T07:27:50;9.43;;;2.80;;
68449;SDS011;67758;39.572;2.652;2023-06-14T07:30:17;6.57;;;1.70;;
68449;SDS011;67758;39.572;2.652;2023-06-14T07:32:44;8.73;;;2.55;;
68449;SDS011;67758;39.572;2.652;2023-06-14T07:35:19;5.93;;;1.70;;
68449;SDS011;67758;39.572;2.652;2023-06-14T07:38:33;5.80;;;2.13;;
68449;SDS011;67758;39.572;2.652;2023-06-14T07:41:21;6.00;;;2.38;;
68449;SDS011;67758;39.572;2.652;2023-06-14T07:43:59;7.55;;;1.95;;
68449;SDS011;67758;39.572;2.652;2023-06-14T07:46:34;5.30;;;1.97;;
68449;SDS011;67758;39.572;2.652;2023-06-14T07:49:16;7.50;;;2.10;;
68449;SDS011;67758;39.572;2.652;2023-06-14T07:52:03;5.00;;;1.80;;
68449;SDS011;67758;39.572;2.652;2023-06-14T07:54:33;6.20;;;1.75;;
68449;SDS011;67758;39.572;2.652;2023-06-14T07:57:24;5.25;;;1.67;;
68449;SDS011;67758;39.572;2.652;2023-06-14T08:00:13;5.07;;;1.80;;
68449;SDS011;67758;39.572;2.652;2023-06-14T08:02:42;6.57;;;1.92;;
68449;SDS011;67758;39.572;2.652;2023-06-14T08:05:14;5.47;;;2.28;;
68449;SDS011;67758;39.572;2.652;2023-06-14T08:07:49;5.55;;;2.00;;
68449;SDS011;67758;39.572;2.652;2023-06-14T08:10:18;6.30;;;2.15;;
68449;SDS011;67758;39.572;2.652;2023-06-14T08:13:19;6.77;;;2.20;;
68449;SDS011;67758;39.572;2.652;2023-06-14T08:16:02;5.65;;;2.33;;
68449;SDS011;67758;39.572;2.652;2023-06-14T08:19:08;6.88;;;1.90;;
68449;SDS011;67758;39.572;2.652;2023-06-14T08:22:10;4.80;;;1.50;;
68449;SDS011;67758;39.572;2.652;2023-06-14T08:24:42;5.45;;;1.65;;
68449;SDS011;67758;39.572;2.652;2023-06-14T08:27:09;6.23;;;1.70;;
68449;SDS011;67758;39.572;2.652;2023-06-14T08:29:45;4.93;;;1.50;;
68449;SDS011;67758;39.572;2.652;2023-06-14T08:32:12;7.30;;;2.30;;
68449;SDS011;67758;39.572;2.652;2023-06-14T08:34:40;6.57;;;1.52;;
68449;SDS011;67758;39.572;2.652;2023-06-14T08:37:07;6.70;;;1.92;;
68449;SDS011;67758;39.572;2.652;2023-06-14T08:39:34;9.07;;;1.80;;
68449;SDS011;67758;39.572;2.652;2023-06-14T08:42:08;5.00;;;1.60;;
68449;SDS011;67758;39.572;2.652;2023-06-14T08:44:59;5.00;;;2.00;;
68449;SDS011;67758;39.572;2.652;2023-06-14T08:47:52;5.28;;;1.90;;
68449;SDS011;67758;39.572;2.652;2023-06-14T08:50:26;5.82;;;1.75;;
68449;SDS011;67758;39.572;2.652;2023-06-14T08:53:22;4.10;;;1.50;;
68449;SDS011;67758;39.572;2.652;2023-06-14T08:55:50;5.32;;;1.77;;
68449;SDS011;67758;39.572;2.652;2023-06-14T08:58:23;5.25;;;1.90;;
68449;SDS011;67758;39.572;2.652;2023-06-14T09:00:49;6.43;;;1.95;;
68449;SDS011;67758;39.572;2.652;2023-06-14T09:03:17;7.18;;;2.30;;
68449;SDS011;67758;39.572;2.652;2023-06-14T09:05:52;5.03;;;1.97;;
68449;SDS011;67758;39.572;2.652;2023-06-14T09:08:22;5.60;;;1.90;;
68449;SDS011;67758;39.572;2.652;2023-06-14T09:10:49;7.57;;;2.20;;
68449;SDS011;67758;39.572;2.652;2023-06-14T09:13:16;8.05;;;1.80;;
68449;SDS011;67758;39.572;2.652;2023-06-14T09:15:42;11.20;;;2.05;;
68449;SDS011;67758;39.572;2.652;2023-06-14T09:18:08;5.90;;;1.60;;
68449;SDS011;67758;39.572;2.652;2023-06-14T09:20:40;6.60;;;2.20;;
68449;SDS011;67758;39.572;2.652;2023-06-14T09:23:08;5.97;;;2.60;;
68449;SDS011;67758;39.572;2.652;2023-06-14T09:25:44;5.50;;;1.90;;
68449;SDS011;67758;39.572;2.652;2023-06-14T09:28:11;7.07;;;1.80;;
68449;SDS011;67758;39.572;2.652;2023-06-14T09:30:37;5.78;;;1.85;;
68449;SDS011;67758;39.572;2.652;2023-06-14T09:33:08;7.93;;;2.22;;
68449;SDS011;67758;39.572;2.652;2023-06-14T09:35:46;8.23;;;2.65;;
68449;SDS011;67758;39.572;2.652;2023-06-14T09:38:16;11.70;;;2.47;;
68449;SDS011;67758;39.572;2.652;2023-06-14T09:40:41;11.63;;;2.85;;
68449;SDS011;67758;39.572;2.652;2023-06-14T09:43:07;10.40;;;3.03;;
68449;SDS011;67758;39.572;2.652;2023-06-14T09:45:36;8.85;;;3.42;;
68449;SDS011;67758;39.572;2.652;2023-06-14T09:48:05;8.32;;;3.05;;
68449;SDS011;67758;39.572;2.652;2023-06-14T09:50:33;7.80;;;2.70;;
68449;SDS011;67758;39.572;2.652;2023-06-14T09:53:02;6.63;;;2.30;;
68449;SDS011;67758;39.572;2.652;2023-06-14T09:58:27;6.13;;;2.30;;
68449;SDS011;67758;39.572;2.652;2023-06-14T10:00:54;7.55;;;2.22;;
68449;SDS011;67758;39.572;2.652;2023-06-14T10:03:29;11.07;;;2.87;;
68449;SDS011;67758;39.572;2.652;2023-06-14T10:06:02;7.60;;;2.47;;
68449;SDS011;67758;39.572;2.652;2023-06-14T10:08:35;6.55;;;1.80;;
68449;SDS011;67758;39.572;2.652;2023-06-14T10:11:29;6.28;;;1.88;;
68449;SDS011;67758;39.572;2.652;2023-06-14T10:14:27;7.85;;;1.75;;
68449;SDS011;67758;39.572;2.652;2023-06-14T10:17:04;6.23;;;1.90;;
68449;SDS011;67758;39.572;2.652;2023-06-14T10:19:43;7.30;;;2.30;;
68449;SDS011;67758;39.572;2.652;2023-06-14T10:22:24;5.80;;;2.22;;
68449;SDS011;67758;39.572;2.652;2023-06-14T10:24:55;5.20;;;2.22;;
68449;SDS011;67758;39.572;2.652;2023-06-14T10:27:24;4.80;;;1.88;;
68449;SDS011;67758;39.572;2.652;2023-06-14T10:32:22;6.60;;;2.67;;
68449;SDS011;67758;39.572;2.652;2023-06-14T10:35:06;14.55;;;3.90;;
68449;SDS011;67758;39.572;2.652;2023-06-14T10:37:42;5.30;;;2.75;;
68449;SDS011;67758;39.572;2.652;2023-06-14T10:40:26;7.28;;;3.65;;
68449;SDS011;67758;39.572;2.652;2023-06-14T10:42:58;6.90;;;3.13;;
68449;SDS011;67758;39.572;2.652;2023-06-14T10:45:26;6.72;;;3.42;;
68449;SDS011;67758;39.572;2.652;2023-06-14T10:47:56;8.93;;;3.20;;
68449;SDS011;67758;39.572;2.652;2023-06-14T10:50:28;7.25;;;3.25;;
68449;SDS011;67758;39.572;2.652;2023-06-14T10:52:54;7.40;;;3.15;;
68449;SDS011;67758;39.572;2.652;2023-06-14T10:55:20;6.77;;;3.63;;
68449;SDS011;67758;39.572;2.652;2023-06-14T10:57:52;6.68;;;3.17;;
68449;SDS011;67758;39.572;2.652;2023-06-14T11:00:27;7.90;;;3.38;;
68449;SDS011;67758;39.572;2.652;2023-06-14T11:05:54;7.63;;;3.43;;
68449;SDS011;67758;39.572;2.652;2023-06-14T11:08:26;6.55;;;3.40;;
68449;SDS011;67758;39.572;2.652;2023-06-14T11:10:54;7.88;;;2.70;;
68449;SDS011;67758;39.572;2.652;2023-06-14T11:13:26;7.68;;;2.80;;
68449;SDS011;67758;39.572;2.652;2023-06-14T11:15:59;7.53;;;2.20;;
68449;SDS011;67758;39.572;2.652;2023-06-14T11:18:25;7.17;;;3.77;;
68449;SDS011;67758;39.572;2.652;2023-06-14T11:21:03;7.05;;;3.05;;
68449;SDS011;67758;39.572;2.652;2023-06-14T11:23:30;7.60;;;4.22;;
68449;SDS011;67758;39.572;2.652;2023-06-14T11:25:58;6.47;;;3.30;;
68449;SDS011;67758;39.572;2.652;2023-06-14T11:28:35;6.00;;;2.75;;
68449;SDS011;67758;39.572;2.652;2023-06-14T11:31:02;7.78;;;3.15;;
68449;SDS011;67758;39.572;2.652;2023-06-14T11:33:35;7.25;;;3.50;;
68449;SDS011;67758;39.572;2.652;2023-06-14T11:36:30;6.07;;;3.15;;
68449;SDS011;67758;39.572;2.652;2023-06-14T11:39:00;6.90;;;3.83;;
68449;SDS011;67758;39.572;2.652;2023-06-14T11:41:35;8.63;;;3.92;;
68449;SDS011;67758;39.572;2.652;2023-06-14T11:44:03;6.70;;;2.75;;
68449;SDS011;67758;39.572;2.652;2023-06-14T11:46:29;6.75;;;2.88;;
68449;SDS011;67758;39.572;2.652;2023-06-14T11:48:54;6.32;;;3.13;;
68449;SDS011;67758;39.572;2.652;2023-06-14T11:51:23;6.50;;;3.35;;
68449;SDS011;67758;39.572;2.652;2023-06-14T11:53:50;5.97;;;3.50;;
68449;SDS011;67758;39.572;2.652;2023-06-14T11:56:22;7.23;;;4.30;;
68449;SDS011;67758;39.572;2.652;2023-06-14T11:58:48;6.22;;;3.10;;
68449;SDS011;67758;39.572;2.652;2023-06-14T12:01:17;7.53;;;2.15;;
68449;SDS011;67758;39.572;2.652;2023-06-14T12:03:49;5.87;;;3.30;;
68449;SDS011;67758;39.572;2.652;2023-06-14T12:06:16;5.57;;;3.25;;
68449;SDS011;67758;39.572;2.652;2023-06-14T12:08:55;7.00;;;3.75;;
68449;SDS011;67758;39.572;2.652;2023-06-14T12:11:21;9.10;;;3.30;;
68449;SDS011;67758;39.572;2.652;2023-06-14T12:13:47;6.00;;;3.23;;
68449;SDS011;67758;39.572;2.652;2023-06-14T12:16:14;6.50;;;2.72;;
68449;SDS011;67758;39.572;2.652;2023-06-14T12:18:40;6.22;;;2.78;;
68449;SDS011;67758;39.572;2.652;2023-06-14T12:21:08;7.18;;;2.72;;
68449;SDS011;67758;39.572;2.652;2023-06-14T12:23:42;5.22;;;3.00;;
68449;SDS011;67758;39.572;2.652;2023-06-14T12:26:15;5.45;;;2.72;;
68449;SDS011;67758;39.572;2.652;2023-06-14T12:28:42;3.92;;;1.83;;
68449;SDS011;67758;39.572;2.652;2023-06-14T12:31:10;6.73;;;2.87;;
68449;SDS011;67758;39.572;2.652;2023-06-14T12:33:38;6.13;;;3.42;;
68449;SDS011;67758;39.572;2.652;2023-06-14T12:36:06;6.55;;;3.40;;
68449;SDS011;67758;39.572;2.652;2023-06-14T12:38:49;7.45;;;3.85;;
68449;SDS011;67758;39.572;2.652;2023-06-14T12:41:19;5.38;;;2.65;;
68449;SDS011;67758;39.572;2.652;2023-06-14T12:43:46;8.30;;;2.80;;
68449;SDS011;67758;39.572;2.652;2023-06-14T12:46:12;5.47;;;2.38;;
68449;SDS011;67758;39.572;2.652;2023-06-14T12:48:38;8.40;;;3.87;;
68449;SDS011;67758;39.572;2.652;2023-06-14T12:51:03;8.02;;;3.53;;
68449;SDS011;67758;39.572;2.652;2023-06-14T12:53:29;6.40;;;3.50;;
68449;SDS011;67758;39.572;2.652;2023-06-14T12:55:54;8.10;;;3.80;;
68449;SDS011;67758;39.572;2.652;2023-06-14T12:58:20;6.82;;;3.30;;
68449;SDS011;67758;39.572;2.652;2023-06-14T13:00:46;9.63;;;3.10;;
68449;SDS011;67758;39.572;2.652;2023-06-14T13:03:12;6.55;;;3.90;;
68449;SDS011;67758;39.572;2.652;2023-06-14T13:05:38;5.68;;;3.38;;
68449;SDS011;67758;39.572;2.652;2023-06-14T13:08:06;4.97;;;2.50;;
68449;SDS011;67758;39.572;2.652;2023-06-14T13:10:33;6.03;;;2.90;;
68449;SDS011;67758;39.572;2.652;2023-06-14T13:12:59;5.25;;;2.70;;
68449;SDS011;67758;39.572;2.652;2023-06-14T13:15:25;8.10;;;3.30;;
68449;SDS011;67758;39.572;2.652;2023-06-14T13:17:52;7.60;;;2.33;;
68449;SDS011;67758;39.572;2.652;2023-06-14T13:20:18;5.40;;;2.55;;
68449;SDS011;67758;39.572;2.652;2023-06-14T13:22:43;5.90;;;2.30;;
68449;SDS011;67758;39.572;2.652;2023-06-14T13:25:09;5.82;;;2.67;;
68449;SDS011;67758;39.572;2.652;2023-06-14T13:27:35;6.53;;;2.80;;
68449;SDS011;67758;39.572;2.652;2023-06-14T13:30:01;5.65;;;2.35;;
68449;SDS011;67758;39.572;2.652;2023-06-14T13:32:26;5.13;;;2.40;;
68449;SDS011;67758;39.572;2.652;2023-06-14T13:34:52;5.70;;;2.78;;
68449;SDS011;67758;39.572;2.652;2023-06-14T13:37:18;7.10;;;2.73;;
68449;SDS011;67758;39.572;2.652;2023-06-14T13:39:43;5.57;;;2.53;;
68449;SDS011;67758;39.572;2.652;2023-06-14T13:42:09;6.17;;;2.43;;
68449;SDS011;67758;39.572;2.652;2023-06-14T13:44:35;5.45;;;2.47;;
68449;SDS011;67758;39.572;2.652;2023-06-14T13:47:01;5.83;;;2.80;;
68449;SDS011;67758;39.572;2.652;2023-06-14T13:49:27;5.47;;;3.38;;
68449;SDS011;67758;39.572;2.652;2023-06-14T13:51:52;6.17;;;3.40;;
68449;SDS011;67758;39.572;2.652;2023-06-14T13:54:21;5.90;;;3.10;;
68449;SDS011;67758;39.572;2.652;2023-06-14T13:56:47;5.45;;;3.33;;
68449;SDS011;67758;39.572;2.652;2023-06-14T13:59:13;5.70;;;2.80;;
68449;SDS011;67758;39.572;2.652;2023-06-14T14:01:39;4.57;;;2.65;;
68449;SDS011;67758;39.572;2.652;2023-06-14T14:04:05;5.57;;;2.55;;
68449;SDS011;67758;39.572;2.652;2023-06-14T14:06:31;5.43;;;2.60;;
68449;SDS011;67758;39.572;2.652;2023-06-14T14:09:08;5.78;;;3.05;;
68449;SDS011;67758;39.572;2.652;2023-06-14T14:11:34;5.43;;;3.00;;
68449;SDS011;67758;39.572;2.652;2023-06-14T14:14:00;5.03;;;3.00;;
68449;SDS011;67758;39.572;2.652;2023-06-14T14:16:26;6.90;;;3.03;;
68449;SDS011;67758;39.572;2.652;2023-06-14T14:18:52;7.45;;;3.60;;
68449;SDS011;67758;39.572;2.652;2023-06-14T14:21:18;6.43;;;3.57;;
68449;SDS011;67758;39.572;2.652;2023-06-14T14:23:46;6.28;;;2.63;;
68449;SDS011;67758;39.572;2.652;2023-06-14T14:26:13;5.70;;;3.20;;
68449;SDS011;67758;39.572;2.652;2023-06-14T14:28:39;5.60;;;3.10;;
68449;SDS011;67758;39.572;2.652;2023-06-14T14:31:05;5.43;;;3.35;;
68449;SDS011;67758;39.572;2.652;2023-06-14T14:33:31;5.22;;;3.03;;
68449;SDS011;67758;39.572;2.652;2023-06-14T14:35:56;5.55;;;3.30;;
68449;SDS011;67758;39.572;2.652;2023-06-14T14:38:22;6.63;;;3.10;;
68449;SDS011;67758;39.572;2.652;2023-06-14T14:40:48;6.10;;;3.83;;
68449;SDS011;67758;39.572;2.652;2023-06-14T14:43:14;6.32;;;3.78;;
68449;SDS011;67758;39.572;2.652;2023-06-14T14:45:40;5.53;;;3.20;;
68449;SDS011;67758;39.572;2.652;2023-06-14T14:48:05;6.67;;;3.70;;
68449;SDS011;67758;39.572;2.652;2023-06-14T14:50:31;6.03;;;3.13;;
68449;SDS011;67758;39.572;2.652;2023-06-14T14:52:57;6.75;;;3.38;;
68449;SDS011;67758;39.572;2.652;2023-06-14T14:55:23;8.30;;;4.00;;
68449;SDS011;67758;39.572;2.652;2023-06-14T14:57:49;8.35;;;4.15;;
68449;SDS011;67758;39.572;2.652;2023-06-14T15:00:15;5.38;;;3.78;;
68449;SDS011;67758;39.572;2.652;2023-06-14T15:02:41;5.32;;;3.88;;
68449;SDS011;67758;39.572;2.652;2023-06-14T15:05:07;5.55;;;4.05;;
68449;SDS011;67758;39.572;2.652;2023-06-14T15:07:38;6.00;;;4.37;;
68449;SDS011;67758;39.572;2.652;2023-06-14T15:10:06;6.65;;;4.43;;
68449;SDS011;67758;39.572;2.652;2023-06-14T15:12:35;4.95;;;3.80;;